createdAt,value
2018-04-08T00:00:06.053Z,44.45
2018-04-08T00:02:33.557Z,45.25
2018-04-08T00:05:01.042Z,44.59
2018-04-08T00:07:28.497Z,44.61
2018-04-08T00:09:56.013Z,44.30
2018-04-08T00:12:23.565Z,44.59
2018-04-08T00:14:51.049Z,44.29
2018-04-08T00:17:18.500Z,44.67
2018-04-08T00:19:45.985Z,44.57
2018-04-08T00:22:13.470Z,44.71
2018-04-08T00:24:40.988Z,45.49
2018-04-08T00:27:08.440Z,46.05
2018-04-08T00:29:35.957Z,45.76
2018-04-08T00:32:03.453Z,45.46
2018-04-08T00:34:30.940Z,45.69
2018-04-08T00:36:58.408Z,45.79
2018-04-08T00:39:25.902Z,45.87
2018-04-08T00:41:54.273Z,46.21
2018-04-08T00:44:21.752Z,46.70
2018-04-08T00:46:49.213Z,46.56
2018-04-08T00:49:16.709Z,46.34
2018-04-08T00:51:44.169Z,46.49
2018-04-08T00:54:23.480Z,46.49
2018-04-08T00:56:50.941Z,47.42
2018-04-08T00:59:18.476Z,46.40
2018-04-08T01:01:46.860Z,47.23
2018-04-08T01:04:14.312Z,46.53
2018-04-08T01:06:41.802Z,46.69
2018-04-08T01:09:10.224Z,46.92
2018-04-08T01:11:37.713Z,46.60
2018-04-08T01:14:05.170Z,46.75
2018-04-08T01:16:32.657Z,47.06
2018-04-08T01:19:01.009Z,46.78
2018-04-08T01:21:28.505Z,47.38
2018-04-08T01:23:56.900Z,47.11
2018-04-08T01:26:24.380Z,46.91
2018-04-08T01:28:51.832Z,47.13
2018-04-08T01:31:20.229Z,47.25
2018-04-08T01:33:47.678Z,47.39
2018-04-08T01:36:15.157Z,47.36
2018-04-08T01:38:42.609Z,47.85
2018-04-08T01:41:10.117Z,48.56
2018-04-08T01:43:38.469Z,48.03
2018-04-08T01:46:05.928Z,48.64
2018-04-08T01:48:33.413Z,47.98
2018-04-08T01:51:00.874Z,48.01
2018-04-08T01:53:29.390Z,48.05
2018-04-08T01:55:56.848Z,48.23
2018-04-08T01:58:24.408Z,48.28
2018-04-08T02:00:51.873Z,48.38
2018-04-08T02:03:19.366Z,48.33
2018-04-08T02:05:46.829Z,48.63
2018-04-08T02:08:14.321Z,48.98
2018-04-08T02:10:42.794Z,49.20
2018-04-08T02:13:10.278Z,49.17
2018-04-08T02:15:37.741Z,50.17
2018-04-08T02:18:05.297Z,49.55
2018-04-08T02:20:32.757Z,49.95
2018-04-08T02:23:00.243Z,49.51
2018-04-08T02:25:27.753Z,49.68
2018-04-08T02:27:55.244Z,49.26
2018-04-08T02:30:22.772Z,49.55
2018-04-08T02:32:50.225Z,49.71
2018-04-08T02:35:17.722Z,50.03
2018-04-08T02:37:45.176Z,50.02
2018-04-08T02:40:12.716Z,49.93
2018-04-08T02:42:40.269Z,50.05
2018-04-08T02:45:07.822Z,49.94
2018-04-08T02:47:35.290Z,50.16
2018-04-08T02:50:02.781Z,50.06
2018-04-08T02:52:30.248Z,50.08
2018-04-08T02:54:57.729Z,50.41
2018-04-08T02:57:25.186Z,50.50
2018-04-08T02:59:52.674Z,50.87
2018-04-08T03:02:20.129Z,50.95
2018-04-08T03:04:47.686Z,52.04
2018-04-08T03:07:15.242Z,51.13
2018-04-08T03:09:42.725Z,51.64
2018-04-08T03:12:10.253Z,52.26
2018-04-08T03:14:37.746Z,51.88
2018-04-08T03:17:06.173Z,51.81
2018-04-08T03:19:33.652Z,52.50
2018-04-08T03:22:01.106Z,52.73
2018-04-08T03:24:28.665Z,53.09
2018-04-08T03:26:56.117Z,52.94
2018-04-08T03:29:23.588Z,52.98
2018-04-08T03:31:51.142Z,54.14
2018-04-08T03:34:18.632Z,53.16
2018-04-08T03:36:46.085Z,53.32
2018-04-08T03:39:13.565Z,53.22
2018-04-08T03:41:41.081Z,53.68
2018-04-08T03:44:08.539Z,53.78
2018-04-08T03:46:36.022Z,53.96
2018-04-08T03:49:04.395Z,55.18
2018-04-08T03:51:31.876Z,54.32
2018-04-08T03:53:59.329Z,54.62
2018-04-08T03:56:26.815Z,54.94
2018-04-08T03:58:54.276Z,55.97
2018-04-08T04:01:21.773Z,55.13
2018-04-08T04:03:49.226Z,54.95
2018-04-08T04:06:16.705Z,54.96
2018-04-08T04:08:45.141Z,54.95
2018-04-08T04:11:12.624Z,54.93
2018-04-08T04:13:40.075Z,55.49
2018-04-08T04:16:07.559Z,55.13
2018-04-08T04:18:46.905Z,55.17
2018-04-08T04:21:26.317Z,55.81
2018-04-08T04:24:06.636Z,56.30
2018-04-08T04:26:34.113Z,55.91
2018-04-08T04:29:01.565Z,55.20
2018-04-08T04:31:29.045Z,55.45
2018-04-08T04:33:56.497Z,56.02
2018-04-08T04:36:23.952Z,54.80
2018-04-08T04:38:51.438Z,54.98
2018-04-08T04:41:18.889Z,55.62
2018-04-08T04:43:52.014Z,55.89
2018-04-08T04:46:19.472Z,56.59
2018-04-08T04:48:47.045Z,57.19
2018-04-08T04:51:14.521Z,56.72
2018-04-08T04:53:42.001Z,56.49
2018-04-08T04:56:09.461Z,56.30
2018-04-08T04:58:36.950Z,56.37
2018-04-08T05:01:04.406Z,56.09
2018-04-08T05:03:31.911Z,55.86
2018-04-08T05:05:59.361Z,55.95
2018-04-08T05:08:26.861Z,55.86
2018-04-08T05:10:54.312Z,55.84
2018-04-08T05:13:21.806Z,55.57
2018-04-08T05:15:49.260Z,55.23
2018-04-08T05:18:16.811Z,55.28
2018-04-08T05:20:44.264Z,54.85
2018-04-08T05:23:11.772Z,54.84
2018-04-08T05:25:39.316Z,54.72
2018-04-08T05:28:06.883Z,54.83
2018-04-08T05:30:34.296Z,54.88
2018-04-08T05:33:01.754Z,53.08
2018-04-08T05:35:29.234Z,53.45
2018-04-08T05:37:57.693Z,53.72
2018-04-08T05:40:25.186Z,53.26
2018-04-08T05:42:53.655Z,53.29
2018-04-08T05:45:21.149Z,53.25
2018-04-08T05:47:48.600Z,52.85
2018-04-08T05:50:16.070Z,52.29
2018-04-08T05:52:43.522Z,52.04
2018-04-08T05:55:10.981Z,51.72
2018-04-08T05:57:38.417Z,51.44
2018-04-08T06:00:05.909Z,51.26
2018-04-08T06:02:33.440Z,51.30
2018-04-08T06:05:00.919Z,50.43
2018-04-08T06:07:28.373Z,49.96
2018-04-08T06:09:55.852Z,49.80
2018-04-08T06:12:23.446Z,49.32
2018-04-08T06:14:50.921Z,48.24
2018-04-08T06:17:18.445Z,47.32
2018-04-08T06:19:45.923Z,46.77
2018-04-08T06:22:13.462Z,47.87
2018-04-08T06:24:41.112Z,48.16
2018-04-08T06:27:08.569Z,48.24
2018-04-08T06:29:36.024Z,48.60
2018-04-08T06:32:05.434Z,48.33
2018-04-08T06:34:32.897Z,47.99
2018-04-08T06:37:00.398Z,47.92
2018-04-08T06:39:28.788Z,47.89
2018-04-08T06:41:56.268Z,47.48
2018-04-08T06:44:23.733Z,47.18
2018-04-08T06:46:51.274Z,47.13
2018-04-08T06:49:18.726Z,46.97
2018-04-08T06:51:46.240Z,46.06
2018-04-08T06:54:13.694Z,45.49
2018-04-08T06:56:41.179Z,45.24
2018-04-08T06:59:08.657Z,44.80
2018-04-08T07:01:36.141Z,44.36
2018-04-08T07:04:03.625Z,43.61
2018-04-08T07:06:31.121Z,44.20
2018-04-08T07:08:58.593Z,44.09
2018-04-08T07:11:26.081Z,43.69
2018-04-08T07:13:54.578Z,43.50
2018-04-08T07:16:22.081Z,42.79
2018-04-08T07:18:49.534Z,43.01
2018-04-08T07:21:16.994Z,42.30
2018-04-08T07:23:44.492Z,42.13
2018-04-08T07:26:11.954Z,43.00
2018-04-08T07:28:39.439Z,42.65
2018-04-08T07:31:13.781Z,43.04
2018-04-08T07:33:42.221Z,42.81
2018-04-08T07:36:09.673Z,42.46
2018-04-08T07:38:37.166Z,41.91
2018-04-08T07:41:04.621Z,41.98
2018-04-08T07:43:32.112Z,42.05
2018-04-08T07:45:59.581Z,41.70
2018-04-08T07:48:29.012Z,41.08
2018-04-08T07:50:57.462Z,40.66
2018-04-08T07:53:24.959Z,41.61
2018-04-08T07:55:52.417Z,41.80
2018-04-08T07:58:20.820Z,41.11
2018-04-08T08:00:48.336Z,40.87
2018-04-08T08:03:15.826Z,40.18
2018-04-08T08:05:43.277Z,40.08
2018-04-08T08:08:11.681Z,38.87
2018-04-08T08:10:39.158Z,38.64
2018-04-08T08:13:06.671Z,38.34
2018-04-08T08:15:34.185Z,38.25
2018-04-08T08:18:01.697Z,38.73
2018-04-08T08:20:29.175Z,37.59
2018-04-08T08:22:56.676Z,37.78
2018-04-08T08:25:24.137Z,38.57
2018-04-08T08:27:51.710Z,39.77
2018-04-08T08:30:19.209Z,38.33
2018-04-08T08:32:47.697Z,38.91
2018-04-08T08:35:15.226Z,38.68
2018-04-08T08:37:43.497Z,38.26
2018-04-08T08:40:10.983Z,38.74
2018-04-08T08:42:39.364Z,38.56
2018-04-08T08:45:06.853Z,38.50
2018-04-08T08:47:34.304Z,38.56
2018-04-08T08:50:01.797Z,38.12
2018-04-08T08:52:29.248Z,38.42
2018-04-08T08:54:56.795Z,38.13
2018-04-08T08:57:26.265Z,37.78
2018-04-08T08:59:54.725Z,38.46
2018-04-08T09:02:23.697Z,38.78
2018-04-08T09:04:51.255Z,39.21
2018-04-08T09:07:18.746Z,39.35
2018-04-08T09:09:46.366Z,39.28
2018-04-08T09:12:13.858Z,38.71
2018-04-08T09:14:41.345Z,38.49
2018-04-08T09:17:08.832Z,38.55
2018-04-08T09:19:43.221Z,38.79
2018-04-08T09:22:15.634Z,37.53
2018-04-08T09:24:43.629Z,37.71
2018-04-08T09:27:12.123Z,38.08
2018-04-08T09:29:39.617Z,37.69
2018-04-08T09:32:07.093Z,38.58
2018-04-08T09:34:35.471Z,39.25
2018-04-08T09:37:04.979Z,38.37
2018-04-08T09:39:32.480Z,38.64
2018-04-08T09:41:59.982Z,38.91
2018-04-08T09:44:27.466Z,39.26
2018-04-08T09:46:56.959Z,39.03
2018-04-08T09:49:24.421Z,38.61
2018-04-08T09:51:51.996Z,39.47
2018-04-08T09:54:19.448Z,37.75
2018-04-08T09:56:47.862Z,37.48
2018-04-08T09:59:15.360Z,37.56
2018-04-08T10:01:54.661Z,36.51
2018-04-08T10:04:22.197Z,36.18
2018-04-08T10:06:50.661Z,36.06
2018-04-08T10:09:18.121Z,35.69
2018-04-08T10:11:45.615Z,34.77
2018-04-08T10:14:14.103Z,34.21
2018-04-08T10:16:41.625Z,34.06
2018-04-08T10:19:09.081Z,34.11
2018-04-08T10:21:36.612Z,33.10
2018-04-08T10:24:04.074Z,33.09
2018-04-08T10:26:31.568Z,33.79
2018-04-08T10:28:59.031Z,33.72
2018-04-08T10:31:26.502Z,33.22
2018-04-08T10:33:54.005Z,33.10
2018-04-08T10:36:21.521Z,33.70
2018-04-08T10:38:49.045Z,33.74
2018-04-08T10:41:17.465Z,34.00
2018-04-08T10:43:45.817Z,34.25
2018-04-08T10:46:13.318Z,33.63
2018-04-08T10:48:40.801Z,34.17
2018-04-08T10:51:09.193Z,33.71
2018-04-08T10:53:36.842Z,33.79
2018-04-08T10:56:04.295Z,33.10
2018-04-08T10:58:31.805Z,32.80
2018-04-08T11:00:59.265Z,33.11
2018-04-08T11:03:26.774Z,32.74
2018-04-08T11:05:54.228Z,32.05
2018-04-08T11:08:22.690Z,32.02
2018-04-08T11:10:50.162Z,30.99
2018-04-08T11:13:17.670Z,31.57
2018-04-08T11:15:45.142Z,31.15
2018-04-08T11:18:12.607Z,31.09
2018-04-08T11:20:40.102Z,30.94
2018-04-08T11:23:07.561Z,30.89
2018-04-08T11:25:35.075Z,30.65
2018-04-08T11:28:04.456Z,31.72
2018-04-08T11:30:31.970Z,30.68
2018-04-08T11:32:59.433Z,30.37
2018-04-08T11:35:26.909Z,30.32
2018-04-08T11:37:54.357Z,30.94
2018-04-08T11:40:21.846Z,31.21
2018-04-08T11:42:49.334Z,30.48
2018-04-08T11:45:16.820Z,30.55
2018-04-08T11:47:44.281Z,30.43
2018-04-08T11:50:11.770Z,31.09
2018-04-08T11:52:39.229Z,30.51
2018-04-08T11:55:06.722Z,30.02
2018-04-08T11:57:34.176Z,30.35
2018-04-08T12:00:01.673Z,29.66
2018-04-08T12:02:29.121Z,30.86
2018-04-08T12:04:56.605Z,30.99
2018-04-08T12:07:25.012Z,30.16
2018-04-08T12:09:52.500Z,29.89
2018-04-08T12:12:21.973Z,29.21
2018-04-08T12:14:49.466Z,28.66
2018-04-08T12:17:16.928Z,28.32
2018-04-08T12:19:44.386Z,28.86
2018-04-08T12:22:11.864Z,28.52
2018-04-08T12:24:39.317Z,29.25
2018-04-08T12:27:08.625Z,29.22
2018-04-08T12:29:36.092Z,29.43
2018-04-08T12:34:30.358Z,28.92
2018-04-08T12:36:58.825Z,29.94
2018-04-08T12:39:26.282Z,28.07
2018-04-08T12:41:54.779Z,28.51
2018-04-08T12:44:22.229Z,28.04
2018-04-08T12:46:49.709Z,28.03
2018-04-08T12:49:17.176Z,27.70
2018-04-08T12:51:44.719Z,27.02
2018-04-08T12:54:12.146Z,27.08
2018-04-08T12:56:39.630Z,27.69
2018-04-08T12:59:07.080Z,27.26
2018-04-08T13:01:34.566Z,26.53
2018-04-08T13:04:02.964Z,26.02
2018-04-08T13:06:30.589Z,26.14
2018-04-08T13:08:58.049Z,26.68
2018-04-08T13:11:25.509Z,26.36
2018-04-08T13:13:53.002Z,26.69
2018-04-08T13:16:20.482Z,26.04
2018-04-08T13:18:47.953Z,25.87
2018-04-08T13:21:15.406Z,25.83
2018-04-08T13:23:42.895Z,25.67
2018-04-08T13:26:10.357Z,25.25
2018-04-08T13:28:37.888Z,25.06
2018-04-08T13:31:05.345Z,24.73
2018-04-08T13:33:32.821Z,23.64
2018-04-08T13:36:00.276Z,21.92
2018-04-08T13:38:27.753Z,20.35
2018-04-08T13:40:55.257Z,19.62
2018-04-08T13:43:22.741Z,20.90
2018-04-08T13:45:50.193Z,20.61
2018-04-08T13:48:17.761Z,20.48
2018-04-08T13:50:45.187Z,19.66
2018-04-08T13:53:12.642Z,20.02
2018-04-08T13:55:40.117Z,20.86
2018-04-08T13:58:08.557Z,20.03
2018-04-08T14:00:36.049Z,19.87
2018-04-08T14:03:03.495Z,18.75
2018-04-08T14:05:30.989Z,18.67
2018-04-08T14:07:59.396Z,18.75
2018-04-08T14:10:26.881Z,18.79
2018-04-08T14:12:54.348Z,18.32
2018-04-08T14:15:21.828Z,17.90
2018-04-08T14:17:49.277Z,17.54
2018-04-08T14:20:16.762Z,16.38
2018-04-08T14:22:44.224Z,17.66
2018-04-08T14:25:11.712Z,17.72
2018-04-08T14:27:39.170Z,19.23
2018-04-08T14:30:06.654Z,19.23
2018-04-08T14:32:34.109Z,18.48
2018-04-08T14:35:01.593Z,18.29
2018-04-08T14:37:29.057Z,19.19
2018-04-08T14:39:56.548Z,19.81
2018-04-08T14:42:24.004Z,20.36
2018-04-08T14:44:51.485Z,19.66
2018-04-08T14:47:18.941Z,18.72
2018-04-08T14:49:46.433Z,18.04
2018-04-08T14:52:13.993Z,16.30
2018-04-08T14:54:42.486Z,14.94
2018-04-08T14:57:11.056Z,14.14
2018-04-08T14:59:38.525Z,14.01
2018-04-08T15:02:06.013Z,12.88
2018-04-08T15:04:33.468Z,11.36
2018-04-08T15:07:00.987Z,11.37
2018-04-08T15:09:28.437Z,10.21
2018-04-08T15:11:55.912Z,9.97
2018-04-08T15:14:23.360Z,8.80
2018-04-08T15:16:51.828Z,10.06
2018-04-08T15:19:19.281Z,10.48
2018-04-08T15:21:46.769Z,10.69
2018-04-08T15:24:14.217Z,9.46
2018-04-08T15:26:41.770Z,8.13
2018-04-08T15:29:11.527Z,7.75
2018-04-08T15:31:39.912Z,8.24
2018-04-08T15:34:07.364Z,8.45
2018-04-08T15:36:34.848Z,8.57
2018-04-08T15:39:02.301Z,8.92
2018-04-08T15:41:29.756Z,8.72
2018-04-08T15:43:57.245Z,9.35
2018-04-08T15:46:24.705Z,10.34
2018-04-08T15:48:52.200Z,10.34
2018-04-08T15:51:19.679Z,8.65
2018-04-08T15:53:47.173Z,9.40
2018-04-08T15:56:14.641Z,11.36
2018-04-08T15:58:43.033Z,11.18
2018-04-08T16:01:10.530Z,11.42
2018-04-08T16:03:38.018Z,14.76
2018-04-08T16:06:05.476Z,17.41
2018-04-08T16:08:35.812Z,19.69
2018-04-08T16:11:03.360Z,21.33
2018-04-08T16:13:30.868Z,21.71
2018-04-08T16:15:58.366Z,21.25
2018-04-08T16:18:25.860Z,18.56
2018-04-08T16:20:53.316Z,16.96
2018-04-08T16:23:20.803Z,16.81
2018-04-08T16:25:48.363Z,15.37
2018-04-08T16:28:16.206Z,14.20
2018-04-08T16:30:44.479Z,15.45
2018-04-08T16:33:13.245Z,14.91
2018-04-08T16:35:40.751Z,13.86
2018-04-08T16:38:08.257Z,15.01
2018-04-08T16:40:35.802Z,16.69
2018-04-08T16:43:03.314Z,15.39
2018-04-08T16:45:31.001Z,16.61
2018-04-08T16:47:58.757Z,18.57
2018-04-08T16:50:26.240Z,22.21
2018-04-08T16:52:53.693Z,23.74
2018-04-08T16:55:21.188Z,24.33
2018-04-08T16:57:48.637Z,25.42
2018-04-08T17:00:16.125Z,25.50
2018-04-08T17:02:45.209Z,26.17
2018-04-08T17:05:12.857Z,26.43
2018-04-08T17:07:40.346Z,27.16
2018-04-08T17:10:07.818Z,28.02
2018-04-08T17:12:36.443Z,28.29
2018-04-08T17:15:04.889Z,28.54
2018-04-08T17:17:32.369Z,28.93
2018-04-08T17:19:59.830Z,29.14
2018-04-08T17:22:27.310Z,29.77
2018-04-08T17:24:54.758Z,29.90
2018-04-08T17:27:22.250Z,30.29
2018-04-08T17:29:49.709Z,30.64
2018-04-08T17:32:17.177Z,30.70
2018-04-08T17:34:44.620Z,31.30
2018-04-08T17:37:12.094Z,31.30
2018-04-08T17:39:39.552Z,31.31
2018-04-08T17:42:07.021Z,31.84
2018-04-08T17:44:34.469Z,32.17
2018-04-08T17:47:01.991Z,32.57
2018-04-08T17:49:29.409Z,32.78
2018-04-08T17:51:56.891Z,33.46
2018-04-08T17:54:24.345Z,33.77
2018-04-08T17:56:52.172Z,34.50
2018-04-08T17:59:19.612Z,34.77
2018-04-08T18:01:47.074Z,35.20
2018-04-08T18:04:15.489Z,35.68
2018-04-08T18:06:42.935Z,35.91
2018-04-08T18:09:10.425Z,36.15
2018-04-08T18:11:38.034Z,36.57
2018-04-08T18:14:05.508Z,36.98
2018-04-08T18:16:34.996Z,37.50
2018-04-08T18:19:02.478Z,37.47
2018-04-08T18:21:29.936Z,37.83
2018-04-08T18:23:57.425Z,38.20
2018-04-08T18:26:24.881Z,38.27
2018-04-08T18:28:52.385Z,38.49
2018-04-08T18:31:19.840Z,38.81
2018-04-08T18:33:47.316Z,38.96
2018-04-08T18:36:14.776Z,39.39
2018-04-08T18:38:42.252Z,39.31
2018-04-08T18:41:09.709Z,39.70
2018-04-08T18:43:37.425Z,39.79
2018-04-08T18:46:04.881Z,40.05
2018-04-08T18:48:32.377Z,40.05
2018-04-08T18:50:59.829Z,40.31
2018-04-08T18:53:27.309Z,40.40
2018-04-08T18:55:54.771Z,40.48
2018-04-08T18:58:22.276Z,40.59
2018-04-08T19:00:49.853Z,40.83
2018-04-08T19:03:17.306Z,41.11
2018-04-08T19:05:44.811Z,41.12
2018-04-08T19:08:12.295Z,41.04
2018-04-08T19:10:39.788Z,41.11
2018-04-08T19:13:07.252Z,41.29
2018-04-08T19:15:35.701Z,41.65
2018-04-08T19:18:03.160Z,41.80
2018-04-08T19:20:30.660Z,41.81
2018-04-08T19:22:58.109Z,42.18
2018-04-08T19:25:25.597Z,42.30
2018-04-08T19:27:53.056Z,42.75
2018-04-08T19:30:21.461Z,42.74
2018-04-08T19:32:48.917Z,42.78
2018-04-08T19:35:16.406Z,42.78
2018-04-08T19:37:43.930Z,42.76
2018-04-08T19:40:11.425Z,42.57
2018-04-08T19:42:38.881Z,42.68
2018-04-08T19:45:07.304Z,42.97
2018-04-08T19:47:34.786Z,43.27
2018-04-08T19:50:02.249Z,43.00
2018-04-08T19:52:29.733Z,42.93
2018-04-08T19:54:57.196Z,42.77
2018-04-08T19:57:24.694Z,42.76
2018-04-08T19:59:52.282Z,43.12
2018-04-08T20:02:19.766Z,43.24
2018-04-08T20:04:47.231Z,43.17
2018-04-08T20:07:14.724Z,43.63
2018-04-08T20:09:42.192Z,43.90
2018-04-08T20:12:09.688Z,43.96
2018-04-08T20:14:37.217Z,43.78
2018-04-08T20:17:05.698Z,44.25
2018-04-08T20:19:33.154Z,44.27
2018-04-08T20:22:00.641Z,44.56
2018-04-08T20:24:28.094Z,44.55
2018-04-08T20:26:55.604Z,44.75
2018-04-08T20:29:23.057Z,44.51
2018-04-08T20:31:50.525Z,44.84
2018-04-08T20:34:18.284Z,45.25
2018-04-08T20:36:45.758Z,45.50
2018-04-08T20:39:13.248Z,45.60
2018-04-08T20:41:40.718Z,45.89
2018-04-08T20:44:08.338Z,45.97
2018-04-08T20:46:35.794Z,46.28
2018-04-08T20:49:03.297Z,46.53
2018-04-08T20:51:30.763Z,47.13
2018-04-08T20:53:58.254Z,47.00
2018-04-08T20:56:25.714Z,46.97
2018-04-08T20:58:55.129Z,46.88
2018-04-08T21:01:22.584Z,46.92
2018-04-08T21:03:50.073Z,46.87
2018-04-08T21:06:17.525Z,46.81
2018-04-08T21:08:45.005Z,46.34
2018-04-08T21:11:12.458Z,45.90
2018-04-08T21:13:39.932Z,45.81
2018-04-08T21:16:07.422Z,45.93
2018-04-08T21:18:34.914Z,46.34
2018-04-08T21:21:02.373Z,46.24
2018-04-08T21:23:29.896Z,45.93
2018-04-08T21:25:57.361Z,46.14
2018-04-08T21:28:24.817Z,46.15
2018-04-08T21:30:52.305Z,46.26
2018-04-08T21:33:19.753Z,46.16
2018-04-08T21:35:47.284Z,46.38
2018-04-08T21:38:14.822Z,46.68
2018-04-08T21:40:42.313Z,46.56
2018-04-08T21:43:09.944Z,46.49
2018-04-08T21:45:37.434Z,46.39
2018-04-08T21:48:05.858Z,46.16
2018-04-08T21:50:33.342Z,46.46
2018-04-08T21:53:00.807Z,46.68
2018-04-08T21:55:28.310Z,46.81
2018-04-08T21:57:55.764Z,46.95
2018-04-08T22:00:23.265Z,46.90
2018-04-08T22:02:50.717Z,47.09
2018-04-08T22:05:18.193Z,47.16
2018-04-08T22:07:45.666Z,47.34
2018-04-08T22:10:13.148Z,47.44
2018-04-08T22:12:40.597Z,47.52
2018-04-08T22:15:08.080Z,47.47
2018-04-08T22:17:35.649Z,47.46
2018-04-08T22:20:03.177Z,47.51
2018-04-08T22:22:30.681Z,47.58
2018-04-08T22:24:58.141Z,47.72
2018-04-08T22:27:25.629Z,47.76
2018-04-08T22:29:53.155Z,47.89
2018-04-08T22:32:20.721Z,47.94
2018-04-08T22:34:48.186Z,48.35
2018-04-08T22:37:15.726Z,48.30
2018-04-08T22:39:43.418Z,47.98
2018-04-08T22:42:10.961Z,48.01
2018-04-08T22:44:38.417Z,48.33
2018-04-08T22:47:06.068Z,48.35
2018-04-08T22:49:33.525Z,48.20
2018-04-08T22:52:01.004Z,48.48
2018-04-08T22:54:28.475Z,48.43
2018-04-08T22:56:55.961Z,48.48
2018-04-08T22:59:23.418Z,48.73
2018-04-08T23:01:50.910Z,48.75
2018-04-08T23:04:18.501Z,48.83
2018-04-08T23:06:45.978Z,49.02
2018-04-08T23:09:13.440Z,49.16
2018-04-08T23:11:40.936Z,49.21
2018-04-08T23:14:08.448Z,49.82
2018-04-08T23:16:35.902Z,49.56
2018-04-08T23:19:03.422Z,49.73
2018-04-08T23:21:31.008Z,49.77
2018-04-08T23:23:58.505Z,49.83
2018-04-08T23:26:25.994Z,49.89
2018-04-08T23:28:53.481Z,49.95
2018-04-08T23:31:20.945Z,49.93
2018-04-08T23:33:48.436Z,50.11
2018-04-08T23:36:15.940Z,49.90
2018-04-08T23:38:44.661Z,49.56
2018-04-08T23:41:14.093Z,49.60
2018-04-08T23:43:41.583Z,49.31
2018-04-08T23:46:09.044Z,49.49
2018-04-08T23:48:36.529Z,49.34
2018-04-08T23:51:03.987Z,49.78
2018-04-08T23:53:31.478Z,49.78
2018-04-08T23:55:58.933Z,50.76
2018-04-08T23:58:27.329Z,50.51
